sensor_id;sensor_type;location;lat;lon;timestamp;pressure;altitude;pressure_sealevel;temperature;humidity
66396;BME280;53207;51.378;-1.342;2023-04-01T00:01:03;98604.86;;;20.16;35.20
66396;BME280;53207;51.378;-1.342;2023-04-01T00:03:30;98609.94;;;20.27;35.05
66396;BME280;53207;51.378;-1.342;2023-04-01T00:05:58;98609.21;;;20.21;35.09
66396;BME280;53207;51.378;-1.342;2023-04-01T00:08:26;98613.25;;;20.21;35.09
66396;BME280;53207;51.378;-1.342;2023-04-01T00:10:54;98619.29;;;20.51;35.03
66396;BME280;53207;51.378;-1.342;2023-04-01T00:13:22;98616.86;;;20.13;35.13
66396;BME280;53207;51.378;-1.342;2023-04-01T00:15:49;98620.23;;;20.21;35.04
66396;BME280;53207;51.378;-1.342;2023-04-01T00:18:17;98622.49;;;20.17;35.06
66396;BME280;53207;51.378;-1.342;2023-04-01T00:20:45;98628.19;;;20.27;34.94
66396;BME280;53207;51.378;-1.342;2023-04-01T00:23:12;98630.26;;;20.15;35.07
66396;BME280;53207;51.378;-1.342;2023-04-01T00:25:39;98630.17;;;20.19;34.98
66396;BME280;53207;51.378;-1.342;2023-04-01T00:28:07;98627.35;;;19.98;34.97
66396;BME280;53207;51.378;-1.342;2023-04-01T00:30:35;98636.05;;;20.16;35.02
66396;BME280;53207;51.378;-1.342;2023-04-01T00:33:03;98638.44;;;20.00;35.16
66396;BME280;53207;51.378;-1.342;2023-04-01T00:35:30;98637.87;;;20.06;35.09
66396;BME280;53207;51.378;-1.342;2023-04-01T00:37:58;98641.59;;;20.13;35.00
66396;BME280;53207;51.378;-1.342;2023-04-01T00:40:28;98642.77;;;20.12;34.98
66396;BME280;53207;51.378;-1.342;2023-04-01T00:42:56;98641.44;;;20.11;35.00
66396;BME280;53207;51.378;-1.342;2023-04-01T00:45:28;98649.38;;;20.06;35.04
66396;BME280;53207;51.378;-1.342;2023-04-01T00:47:56;98650.96;;;20.13;34.92
66396;BME280;53207;51.378;-1.342;2023-04-01T00:50:26;98649.08;;;19.94;35.13
66396;BME280;53207;51.378;-1.342;2023-04-01T00:52:56;98654.65;;;20.06;34.99
66396;BME280;53207;51.378;-1.342;2023-04-01T00:55:24;98659.03;;;20.06;34.96
66396;BME280;53207;51.378;-1.342;2023-04-01T00:57:56;98656.78;;;19.67;35.15
66396;BME280;53207;51.378;-1.342;2023-04-01T01:00:24;98661.14;;;20.19;35.10
66396;BME280;53207;51.378;-1.342;2023-04-01T01:02:51;98661.97;;;19.91;34.82
66396;BME280;53207;51.378;-1.342;2023-04-01T01:05:26;98664.43;;;20.05;34.93
66396;BME280;53207;51.378;-1.342;2023-04-01T01:08:02;98667.71;;;19.72;35.04
66396;BME280;53207;51.378;-1.342;2023-04-01T01:10:33;98670.74;;;20.01;34.94
66396;BME280;53207;51.378;-1.342;2023-04-01T01:13:07;98670.46;;;19.97;34.98
66396;BME280;53207;51.378;-1.342;2023-04-01T01:15:43;98667.82;;;20.29;34.89
66396;BME280;53207;51.378;-1.342;2023-04-01T01:18:19;98663.65;;;20.29;34.86
66396;BME280;53207;51.378;-1.342;2023-04-01T01:21:07;98668.89;;;19.98;34.90
66396;BME280;53207;51.378;-1.342;2023-04-01T01:24:08;98670.61;;;20.04;34.83
66396;BME280;53207;51.378;-1.342;2023-04-01T01:26:53;98672.87;;;19.91;34.96
66396;BME280;53207;51.378;-1.342;2023-04-01T01:29:35;98677.18;;;19.94;34.89
66396;BME280;53207;51.378;-1.342;2023-04-01T01:32:11;98677.05;;;19.95;34.86
66396;BME280;53207;51.378;-1.342;2023-04-01T01:34:49;98675.82;;;19.96;34.86
66396;BME280;53207;51.378;-1.342;2023-04-01T01:37:22;98674.85;;;20.27;34.79
66396;BME280;53207;51.378;-1.342;2023-04-01T01:39:55;98674.59;;;19.98;34.78
66396;BME280;53207;51.378;-1.342;2023-04-01T01:42:24;98679.36;;;19.96;34.78
66396;BME280;53207;51.378;-1.342;2023-04-01T01:44:54;98678.72;;;19.97;34.78
66396;BME280;53207;51.378;-1.342;2023-04-01T01:47:23;98684.91;;;20.20;34.80
66396;BME280;53207;51.378;-1.342;2023-04-01T01:49:53;98680.67;;;20.18;34.81
66396;BME280;53207;51.378;-1.342;2023-04-01T01:52:21;98684.36;;;19.80;34.95
66396;BME280;53207;51.378;-1.342;2023-04-01T01:54:50;98686.70;;;19.86;34.83
66396;BME280;53207;51.378;-1.342;2023-04-01T01:57:20;98693.55;;;19.80;34.90
66396;BME280;53207;51.378;-1.342;2023-04-01T01:59:54;98695.44;;;19.91;34.77
66396;BME280;53207;51.378;-1.342;2023-04-01T02:02:25;98696.33;;;19.85;34.80
66396;BME280;53207;51.378;-1.342;2023-04-01T02:04:53;98699.61;;;19.90;34.73
66396;BME280;53207;51.378;-1.342;2023-04-01T02:07:25;98706.90;;;19.81;34.82
66396;BME280;53207;51.378;-1.342;2023-04-01T02:09:54;98709.18;;;19.85;34.76
66396;BME280;53207;51.378;-1.342;2023-04-01T02:12:22;98711.05;;;19.79;34.82
66396;BME280;53207;51.378;-1.342;2023-04-01T02:14:53;98710.28;;;19.97;34.92
66396;BME280;53207;51.378;-1.342;2023-04-01T02:17:22;98713.71;;;19.82;34.77
66396;BME280;53207;51.378;-1.342;2023-04-01T02:19:52;98713.13;;;20.05;34.81
66396;BME280;53207;51.378;-1.342;2023-04-01T02:22:23;98716.53;;;19.74;34.85
66396;BME280;53207;51.378;-1.342;2023-04-01T02:24:54;98714.52;;;20.07;34.76
66396;BME280;53207;51.378;-1.342;2023-04-01T02:27:24;98717.06;;;19.81;34.72
66396;BME280;53207;51.378;-1.342;2023-04-01T02:29:52;98714.75;;;19.76;34.75
66396;BME280;53207;51.378;-1.342;2023-04-01T02:32:20;98719.32;;;19.74;34.78
66396;BME280;53207;51.378;-1.342;2023-04-01T02:34:47;98722.80;;;19.71;34.82
66396;BME280;53207;51.378;-1.342;2023-04-01T02:37:15;98724.19;;;19.70;34.83
66396;BME280;53207;51.378;-1.342;2023-04-01T02:39:43;98725.50;;;19.71;34.78
66396;BME280;53207;51.378;-1.342;2023-04-01T02:42:10;98727.34;;;19.67;34.80
66396;BME280;53207;51.378;-1.342;2023-04-01T02:44:37;98732.04;;;19.88;34.87
66396;BME280;53207;51.378;-1.342;2023-04-01T02:47:05;98732.78;;;19.80;34.95
66396;BME280;53207;51.378;-1.342;2023-04-01T02:49:32;98731.04;;;19.79;34.99
66396;BME280;53207;51.378;-1.342;2023-04-01T02:51:59;98731.91;;;19.68;34.77
66396;BME280;53207;51.378;-1.342;2023-04-01T02:54:26;98731.07;;;19.90;34.85
66396;BME280;53207;51.378;-1.342;2023-04-01T02:56:54;98731.07;;;19.59;34.86
66396;BME280;53207;51.378;-1.342;2023-04-01T02:59:21;98731.47;;;19.96;34.73
66396;BME280;53207;51.378;-1.342;2023-04-01T03:01:48;98731.92;;;19.48;34.98
66396;BME280;53207;51.378;-1.342;2023-04-01T03:04:16;98735.37;;;19.66;34.74
66396;BME280;53207;51.378;-1.342;2023-04-01T03:06:43;98736.35;;;19.62;34.81
66396;BME280;53207;51.378;-1.342;2023-04-01T03:09:10;98738.46;;;19.83;34.85
66396;BME280;53207;51.378;-1.342;2023-04-01T03:11:38;98737.22;;;19.75;34.97
66396;BME280;53207;51.378;-1.342;2023-04-01T03:14:05;98741.15;;;19.49;34.99
66396;BME280;53207;51.378;-1.342;2023-04-01T03:16:32;98743.72;;;19.56;34.84
66396;BME280;53207;51.378;-1.342;2023-04-01T03:19:00;98744.41;;;19.70;35.03
66396;BME280;53207;51.378;-1.342;2023-04-01T03:21:27;98746.73;;;19.43;35.02
66396;BME280;53207;51.378;-1.342;2023-04-01T03:23:54;98748.74;;;19.95;34.98
66396;BME280;53207;51.378;-1.342;2023-04-01T03:26:21;98749.86;;;19.97;34.92
66396;BME280;53207;51.378;-1.342;2023-04-01T03:28:49;98751.08;;;19.74;34.94
66396;BME280;53207;51.378;-1.342;2023-04-01T03:31:21;98751.31;;;19.43;34.98
66396;BME280;53207;51.378;-1.342;2023-04-01T03:33:49;98754.05;;;20.04;34.83
66396;BME280;53207;51.378;-1.342;2023-04-01T03:36:16;98753.96;;;19.93;34.95
66396;BME280;53207;51.378;-1.342;2023-04-01T03:38:44;98751.89;;;19.72;34.94
66396;BME280;53207;51.378;-1.342;2023-04-01T03:41:12;98755.14;;;19.72;34.96
66396;BME280;53207;51.378;-1.342;2023-04-01T03:43:40;98753.33;;;19.49;34.93
66396;BME280;53207;51.378;-1.342;2023-04-01T03:46:07;98755.42;;;19.74;34.94
66396;BME280;53207;51.378;-1.342;2023-04-01T03:48:34;98759.47;;;19.94;34.94
66396;BME280;53207;51.378;-1.342;2023-04-01T03:51:01;98765.46;;;19.69;34.99
66396;BME280;53207;51.378;-1.342;2023-04-01T03:53:33;98769.91;;;19.73;34.96
66396;BME280;53207;51.378;-1.342;2023-04-01T03:56:04;98776.63;;;19.58;35.08
66396;BME280;53207;51.378;-1.342;2023-04-01T03:58:31;98780.34;;;19.49;34.88
66396;BME280;53207;51.378;-1.342;2023-04-01T04:00:58;98782.54;;;19.38;35.02
66396;BME280;53207;51.378;-1.342;2023-04-01T04:03:26;98786.49;;;19.67;34.98
66396;BME280;53207;51.378;-1.342;2023-04-01T04:05:53;98787.90;;;19.52;35.14
66396;BME280;53207;51.378;-1.342;2023-04-01T04:08:20;98790.81;;;19.63;35.04
66396;BME280;53207;51.378;-1.342;2023-04-01T04:10:51;98794.65;;;19.91;34.94
66396;BME280;53207;51.378;-1.342;2023-04-01T04:13:21;98795.91;;;19.25;35.14
66396;BME280;53207;51.378;-1.342;2023-04-01T04:15:48;98797.89;;;19.38;34.99
66396;BME280;53207;51.378;-1.342;2023-04-01T04:18:16;98798.92;;;19.65;34.95
66396;BME280;53207;51.378;-1.342;2023-04-01T04:20:44;98799.98;;;19.88;34.95
66396;BME280;53207;51.378;-1.342;2023-04-01T04:23:11;98804.19;;;19.40;35.26
66396;BME280;53207;51.378;-1.342;2023-04-01T04:25:38;98804.40;;;19.88;34.96
66396;BME280;53207;51.378;-1.342;2023-04-01T04:28:06;98806.07;;;19.79;35.05
66396;BME280;53207;51.378;-1.342;2023-04-01T04:30:33;98810.42;;;19.51;35.40
66396;BME280;53207;51.378;-1.342;2023-04-01T04:33:00;98809.18;;;19.29;35.04
66396;BME280;53207;51.378;-1.342;2023-04-01T04:35:27;98810.19;;;19.53;35.07
66396;BME280;53207;51.378;-1.342;2023-04-01T04:37:55;98812.55;;;19.65;34.93
66396;BME280;53207;51.378;-1.342;2023-04-01T04:40:22;98813.77;;;19.87;34.90
66396;BME280;53207;51.378;-1.342;2023-04-01T04:42:49;98815.93;;;19.53;35.05
66396;BME280;53207;51.378;-1.342;2023-04-01T04:45:17;98819.88;;;19.68;35.12
66396;BME280;53207;51.378;-1.342;2023-04-01T04:47:44;98823.56;;;19.56;34.97
66396;BME280;53207;51.378;-1.342;2023-04-01T04:50:11;98827.22;;;19.32;34.94
66396;BME280;53207;51.378;-1.342;2023-04-01T04:52:39;98826.68;;;19.25;35.35
66396;BME280;53207;51.378;-1.342;2023-04-01T04:55:07;98832.27;;;19.18;35.44
66396;BME280;53207;51.378;-1.342;2023-04-01T04:57:34;98834.00;;;19.14;35.18
66396;BME280;53207;51.378;-1.342;2023-04-01T05:00:02;98835.86;;;19.76;34.97
66396;BME280;53207;51.378;-1.342;2023-04-01T05:02:29;98841.91;;;19.32;34.89
66396;BME280;53207;51.378;-1.342;2023-04-01T05:04:57;98843.42;;;19.69;35.05
66396;BME280;53207;51.378;-1.342;2023-04-01T05:07:24;98848.68;;;18.89;35.40
66396;BME280;53207;51.378;-1.342;2023-04-01T05:09:51;98848.41;;;19.73;34.97
66396;BME280;53207;51.378;-1.342;2023-04-01T05:12:19;98852.19;;;19.56;34.87
66396;BME280;53207;51.378;-1.342;2023-04-01T05:14:46;98853.53;;;19.68;35.00
66396;BME280;53207;51.378;-1.342;2023-04-01T05:17:13;98857.22;;;19.45;34.99
66396;BME280;53207;51.378;-1.342;2023-04-01T05:19:41;98858.62;;;19.73;34.92
66396;BME280;53207;51.378;-1.342;2023-04-01T05:22:08;98862.45;;;19.31;35.15
66396;BME280;53207;51.378;-1.342;2023-04-01T05:24:35;98861.12;;;19.73;34.88
66396;BME280;53207;51.378;-1.342;2023-04-01T05:27:02;98866.34;;;19.30;35.15
66396;BME280;53207;51.378;-1.342;2023-04-01T05:29:30;98871.00;;;19.40;35.03
66396;BME280;53207;51.378;-1.342;2023-04-01T05:31:57;98874.50;;;19.43;35.00
66396;BME280;53207;51.378;-1.342;2023-04-01T05:34:24;98878.01;;;19.68;34.93
66396;BME280;53207;51.378;-1.342;2023-04-01T05:36:52;98880.52;;;19.09;35.06
66396;BME280;53207;51.378;-1.342;2023-04-01T05:39:19;98883.52;;;19.57;35.04
66396;BME280;53207;51.378;-1.342;2023-04-01T05:41:47;98886.64;;;19.46;34.89
66396;BME280;53207;51.378;-1.342;2023-04-01T05:44:15;98889.11;;;19.32;35.36
66396;BME280;53207;51.378;-1.342;2023-04-01T05:46:42;98890.70;;;19.30;35.08
66396;BME280;53207;51.378;-1.342;2023-04-01T05:49:09;98893.84;;;19.46;35.16
66396;BME280;53207;51.378;-1.342;2023-04-01T05:51:37;98896.50;;;19.49;35.11
66396;BME280;53207;51.378;-1.342;2023-04-01T05:54:04;98899.54;;;19.23;35.15
66396;BME280;53207;51.378;-1.342;2023-04-01T05:56:32;98903.45;;;19.35;35.27
66396;BME280;53207;51.378;-1.342;2023-04-01T05:58:59;98904.43;;;19.05;35.36
66396;BME280;53207;51.378;-1.342;2023-04-01T06:01:27;98906.42;;;19.17;35.46
66396;BME280;53207;51.378;-1.342;2023-04-01T06:03:54;98910.19;;;19.06;35.34
66396;BME280;53207;51.378;-1.342;2023-04-01T06:06:24;98912.01;;;19.31;35.30
66396;BME280;53207;51.378;-1.342;2023-04-01T06:08:53;98913.74;;;19.13;35.24
66396;BME280;53207;51.378;-1.342;2023-04-01T06:11:31;98916.80;;;19.34;35.23
66396;BME280;53207;51.378;-1.342;2023-04-01T06:14:10;98917.94;;;19.28;35.27
66396;BME280;53207;51.378;-1.342;2023-04-01T06:16:51;98921.94;;;19.25;35.33
66396;BME280;53207;51.378;-1.342;2023-04-01T06:19:29;98925.03;;;19.00;35.63
66396;BME280;53207;51.378;-1.342;2023-04-01T06:22:43;98926.42;;;19.29;35.25
66396;BME280;53207;51.378;-1.342;2023-04-01T06:25:24;98930.22;;;19.32;35.20
66396;BME280;53207;51.378;-1.342;2023-04-01T06:28:05;98933.41;;;19.04;35.57
66396;BME280;53207;51.378;-1.342;2023-04-01T06:30:38;98932.45;;;19.23;35.29
66396;BME280;53207;51.378;-1.342;2023-04-01T06:33:19;98933.81;;;19.28;35.21
66396;BME280;53207;51.378;-1.342;2023-04-01T06:36:04;98937.77;;;19.12;35.40
66396;BME280;53207;51.378;-1.342;2023-04-01T06:38:44;98940.98;;;19.04;35.51
66396;BME280;53207;51.378;-1.342;2023-04-01T06:43:37;98945.07;;;19.58;35.42
66396;BME280;53207;51.378;-1.342;2023-04-01T06:46:14;98949.25;;;19.08;35.48
66396;BME280;53207;51.378;-1.342;2023-04-01T06:48:55;98952.70;;;19.00;35.56
66396;BME280;53207;51.378;-1.342;2023-04-01T06:51:33;98957.36;;;19.19;35.29
66396;BME280;53207;51.378;-1.342;2023-04-01T06:54:10;98957.73;;;19.22;35.24
66396;BME280;53207;51.378;-1.342;2023-04-01T06:56:41;98962.27;;;18.99;35.51
66396;BME280;53207;51.378;-1.342;2023-04-01T06:59:13;98960.95;;;19.12;35.35
66396;BME280;53207;51.378;-1.342;2023-04-01T07:01:45;98966.85;;;19.06;35.40
66396;BME280;53207;51.378;-1.342;2023-04-01T07:04:16;98970.67;;;19.15;35.29
66396;BME280;53207;51.378;-1.342;2023-04-01T07:06:50;98972.78;;;19.16;35.27
66396;BME280;53207;51.378;-1.342;2023-04-01T07:09:21;98978.39;;;19.27;35.11
66396;BME280;53207;51.378;-1.342;2023-04-01T07:11:50;98980.07;;;19.27;35.17
66396;BME280;53207;51.378;-1.342;2023-04-01T07:14:24;98985.65;;;19.64;35.16
66396;BME280;53207;51.378;-1.342;2023-04-01T07:16:56;98986.33;;;19.55;35.10
66396;BME280;53207;51.378;-1.342;2023-04-01T07:19:27;98991.46;;;19.70;35.15
66396;BME280;53207;51.378;-1.342;2023-04-01T07:22:00;98993.18;;;19.62;35.15
66396;BME280;53207;51.378;-1.342;2023-04-01T07:24:32;98995.71;;;19.86;35.03
66396;BME280;53207;51.378;-1.342;2023-04-01T07:27:01;98997.24;;;19.81;34.91
66396;BME280;53207;51.378;-1.342;2023-04-01T07:29:28;98999.60;;;19.99;34.80
66396;BME280;53207;51.378;-1.342;2023-04-01T07:32:07;99002.56;;;20.18;34.67
66396;BME280;53207;51.378;-1.342;2023-04-01T07:34:42;99005.21;;;20.37;34.55
66396;BME280;53207;51.378;-1.342;2023-04-01T07:37:14;99006.87;;;20.56;34.40
66396;BME280;53207;51.378;-1.342;2023-04-01T07:39:49;99010.61;;;20.67;34.32
66396;BME280;53207;51.378;-1.342;2023-04-01T07:42:24;99014.43;;;20.59;34.20
66396;BME280;53207;51.378;-1.342;2023-04-01T07:45:01;99019.63;;;20.72;34.08
66396;BME280;53207;51.378;-1.342;2023-04-01T07:47:41;99022.16;;;21.02;33.99
66396;BME280;53207;51.378;-1.342;2023-04-01T07:50:19;99023.28;;;20.66;33.90
66396;BME280;53207;51.378;-1.342;2023-04-01T07:52:54;99024.56;;;20.60;33.96
66396;BME280;53207;51.378;-1.342;2023-04-01T07:55:28;99026.65;;;20.65;33.93
66396;BME280;53207;51.378;-1.342;2023-04-01T07:58:04;99033.69;;;20.79;33.79
66396;BME280;53207;51.378;-1.342;2023-04-01T08:00:42;99036.99;;;20.78;33.72
66396;BME280;53207;51.378;-1.342;2023-04-01T08:03:23;99039.49;;;20.83;33.68
66396;BME280;53207;51.378;-1.342;2023-04-01T08:06:00;99042.54;;;20.73;33.76
66396;BME280;53207;51.378;-1.342;2023-04-01T08:08:39;99046.75;;;20.92;33.75
66396;BME280;53207;51.378;-1.342;2023-04-01T08:11:19;99050.57;;;20.77;33.67
66396;BME280;53207;51.378;-1.342;2023-04-01T08:13:56;99052.88;;;20.88;33.78
66396;BME280;53207;51.378;-1.342;2023-04-01T08:16:29;99057.01;;;20.97;33.69
66396;BME280;53207;51.378;-1.342;2023-04-01T08:19:05;99058.98;;;21.00;33.65
66396;BME280;53207;51.378;-1.342;2023-04-01T08:21:38;99062.35;;;20.77;33.66
66396;BME280;53207;51.378;-1.342;2023-04-01T08:24:16;99065.54;;;20.73;33.66
66396;BME280;53207;51.378;-1.342;2023-04-01T08:26:48;99072.18;;;20.72;33.60
66396;BME280;53207;51.378;-1.342;2023-04-01T08:29:19;99077.45;;;20.92;33.63
66396;BME280;53207;51.378;-1.342;2023-04-01T08:31:51;99081.63;;;20.88;33.66
66396;BME280;53207;51.378;-1.342;2023-04-01T08:34:23;99086.41;;;20.80;33.76
66396;BME280;53207;51.378;-1.342;2023-04-01T08:36:57;99088.63;;;20.80;33.71
66396;BME280;53207;51.378;-1.342;2023-04-01T08:39:30;99091.55;;;20.56;33.74
66396;BME280;53207;51.378;-1.342;2023-04-01T08:42:11;99094.98;;;20.98;33.81
66396;BME280;53207;51.378;-1.342;2023-04-01T08:45:04;99099.75;;;20.49;33.86
66396;BME280;53207;51.378;-1.342;2023-04-01T08:47:42;99100.88;;;20.75;33.84
66396;BME280;53207;51.378;-1.342;2023-04-01T08:51:05;99104.95;;;20.93;33.91
66396;BME280;53207;51.378;-1.342;2023-04-01T08:53:52;99115.25;;;20.68;33.93
66396;BME280;53207;51.378;-1.342;2023-04-01T08:56:27;99118.87;;;20.87;33.96
66396;BME280;53207;51.378;-1.342;2023-04-01T08:59:09;99121.07;;;20.86;33.99
66396;BME280;53207;51.378;-1.342;2023-04-01T09:01:52;99123.63;;;20.40;34.04
66396;BME280;53207;51.378;-1.342;2023-04-01T09:04:30;99126.24;;;20.63;34.05
66396;BME280;53207;51.378;-1.342;2023-04-01T09:07:11;99128.54;;;20.59;34.11
66396;BME280;53207;51.378;-1.342;2023-04-01T09:10:02;99131.89;;;20.38;34.10
66396;BME280;53207;51.378;-1.342;2023-04-01T09:12:42;99134.18;;;20.39;34.10
66396;BME280;53207;51.378;-1.342;2023-04-01T09:15:35;99137.13;;;20.88;34.08
66396;BME280;53207;51.378;-1.342;2023-04-01T09:18:16;99137.93;;;20.62;34.15
66396;BME280;53207;51.378;-1.342;2023-04-01T09:21:01;99142.43;;;20.41;34.16
66396;BME280;53207;51.378;-1.342;2023-04-01T09:23:46;99146.18;;;20.86;34.16
66396;BME280;53207;51.378;-1.342;2023-04-01T09:26:28;99148.26;;;20.44;34.14
66396;BME280;53207;51.378;-1.342;2023-04-01T09:29:05;99152.29;;;20.37;34.25
66396;BME280;53207;51.378;-1.342;2023-04-01T09:31:58;99156.79;;;20.17;34.54
66396;BME280;53207;51.378;-1.342;2023-04-01T09:34:38;99157.46;;;20.32;34.35
66396;BME280;53207;51.378;-1.342;2023-04-01T09:37:21;99161.41;;;20.54;34.35
66396;BME280;53207;51.378;-1.342;2023-04-01T09:40:09;99161.53;;;20.84;34.27
66396;BME280;53207;51.378;-1.342;2023-04-01T09:42:44;99163.34;;;20.57;34.31
66396;BME280;53207;51.378;-1.342;2023-04-01T09:45:29;99165.98;;;20.61;34.29
66396;BME280;53207;51.378;-1.342;2023-04-01T09:48:09;99169.50;;;20.57;34.38
66396;BME280;53207;51.378;-1.342;2023-04-01T09:50:47;99170.71;;;20.63;34.33
66396;BME280;53207;51.378;-1.342;2023-04-01T09:53:33;99176.85;;;20.51;34.54
66396;BME280;53207;51.378;-1.342;2023-04-01T09:56:19;99177.80;;;20.68;34.61
66396;BME280;53207;51.378;-1.342;2023-04-01T10:00:45;99183.06;;;20.53;34.27
66396;BME280;53207;51.378;-1.342;2023-04-01T10:04:08;99189.76;;;20.52;34.34
66396;BME280;53207;51.378;-1.342;2023-04-01T10:08:19;99194.05;;;20.82;34.28
66396;BME280;53207;51.378;-1.342;2023-04-01T10:11:51;99205.37;;;20.66;34.22
66396;BME280;53207;51.378;-1.342;2023-04-01T10:14:37;99210.02;;;20.65;34.25
66396;BME280;53207;51.378;-1.342;2023-04-01T10:17:33;99215.11;;;20.55;34.40
66396;BME280;53207;51.378;-1.342;2023-04-01T10:20:21;99217.44;;;20.41;34.56
66396;BME280;53207;51.378;-1.342;2023-04-01T10:23:07;99220.88;;;20.09;35.01
66396;BME280;53207;51.378;-1.342;2023-04-01T10:25:57;99225.75;;;20.12;34.92
66396;BME280;53207;51.378;-1.342;2023-04-01T10:28:47;99232.78;;;19.99;35.12
66396;BME280;53207;51.378;-1.342;2023-04-01T10:34:11;99240.87;;;20.89;35.14
66396;BME280;53207;51.378;-1.342;2023-04-01T10:36:52;99240.64;;;20.67;34.82
66396;BME280;53207;51.378;-1.342;2023-04-01T10:39:52;99250.03;;;20.11;35.23
66396;BME280;53207;51.378;-1.342;2023-04-01T10:43:30;99253.09;;;20.08;34.99
66396;BME280;53207;51.378;-1.342;2023-04-01T10:46:19;99260.92;;;19.66;35.49
66396;BME280;53207;51.378;-1.342;2023-04-01T10:51:25;99264.53;;;20.91;35.08
66396;BME280;53207;51.378;-1.342;2023-04-01T10:54:45;99268.04;;;20.25;35.05
66396;BME280;53207;51.378;-1.342;2023-04-01T10:57:37;99273.32;;;20.57;34.89
66396;BME280;53207;51.378;-1.342;2023-04-01T11:01:01;99275.92;;;20.16;35.05
66396;BME280;53207;51.378;-1.342;2023-04-01T11:07:22;99280.30;;;20.96;34.96
66396;BME280;53207;51.378;-1.342;2023-04-01T11:13:50;99293.31;;;20.94;34.90
66396;BME280;53207;51.378;-1.342;2023-04-01T11:16:54;99295.91;;;20.01;34.93
66396;BME280;53207;51.378;-1.342;2023-04-01T11:20:03;99300.14;;;20.61;34.71
66396;BME280;53207;51.378;-1.342;2023-04-01T11:22:53;99302.50;;;20.48;34.84
66396;BME280;53207;51.378;-1.342;2023-04-01T11:25:43;99305.79;;;20.60;34.70
66396;BME280;53207;51.378;-1.342;2023-04-01T11:28:28;99307.73;;;20.55;34.74
66396;BME280;53207;51.378;-1.342;2023-04-01T11:31:17;99311.26;;;20.59;34.71
66396;BME280;53207;51.378;-1.342;2023-04-01T11:33:52;99319.62;;;20.18;35.16
66396;BME280;53207;51.378;-1.342;2023-04-01T11:36:29;99325.16;;;20.14;34.71
66396;BME280;53207;51.378;-1.342;2023-04-01T11:39:11;99327.01;;;20.26;34.81
66396;BME280;53207;51.378;-1.342;2023-04-01T11:41:49;99330.60;;;20.52;34.76
66396;BME280;53207;51.378;-1.342;2023-04-01T11:44:20;99333.47;;;20.54;34.72
66396;BME280;53207;51.378;-1.342;2023-04-01T11:46:59;99341.51;;;20.45;34.81
66396;BME280;53207;51.378;-1.342;2023-04-01T11:49:39;99349.51;;;20.47;34.80
66396;BME280;53207;51.378;-1.342;2023-04-01T11:52:27;99350.12;;;20.41;34.84
66396;BME280;53207;51.378;-1.342;2023-04-01T11:55:08;99354.69;;;20.30;34.97
66396;BME280;53207;51.378;-1.342;2023-04-01T11:57:51;99362.54;;;20.27;35.04
66396;BME280;53207;51.378;-1.342;2023-04-01T12:02:54;99370.68;;;20.45;35.07
66396;BME280;53207;51.378;-1.342;2023-04-01T12:05:38;99371.88;;;20.23;35.03
66396;BME280;53207;51.378;-1.342;2023-04-01T12:08:15;99378.22;;;20.07;35.24
66396;BME280;53207;51.378;-1.342;2023-04-01T12:10:53;99382.26;;;20.24;35.02
66396;BME280;53207;51.378;-1.342;2023-04-01T12:13:32;99385.61;;;20.32;34.89
66396;BME280;53207;51.378;-1.342;2023-04-01T12:16:16;99383.40;;;20.39;34.83
66396;BME280;53207;51.378;-1.342;2023-04-01T12:18:53;99386.64;;;20.45;34.75
66396;BME280;53207;51.378;-1.342;2023-04-01T12:21:26;99391.00;;;20.47;34.71
66396;BME280;53207;51.378;-1.342;2023-04-01T12:24:18;99394.91;;;20.42;34.74
66396;BME280;53207;51.378;-1.342;2023-04-01T12:26:59;99398.42;;;20.34;34.82
66396;BME280;53207;51.378;-1.342;2023-04-01T12:29:47;99402.97;;;20.34;34.83
66396;BME280;53207;51.378;-1.342;2023-04-01T12:32:23;99407.10;;;20.09;35.13
66396;BME280;53207;51.378;-1.342;2023-04-01T12:35:01;99411.97;;;19.74;35.26
66396;BME280;53207;51.378;-1.342;2023-04-01T12:37:36;99412.77;;;20.25;34.89
66396;BME280;53207;51.378;-1.342;2023-04-01T12:40:25;99417.77;;;20.27;34.85
66396;BME280;53207;51.378;-1.342;2023-04-01T12:43:04;99422.86;;;20.10;35.05
66396;BME280;53207;51.378;-1.342;2023-04-01T12:45:44;99430.24;;;20.03;35.10
66396;BME280;53207;51.378;-1.342;2023-04-01T12:48:28;99435.94;;;20.15;34.96
66396;BME280;53207;51.378;-1.342;2023-04-01T12:52:11;99445.21;;;20.44;34.92
66396;BME280;53207;51.378;-1.342;2023-04-01T12:54:56;99451.65;;;20.07;35.03
66396;BME280;53207;51.378;-1.342;2023-04-01T12:57:44;99455.83;;;20.11;34.96
66396;BME280;53207;51.378;-1.342;2023-04-01T13:00:27;99457.91;;;19.96;35.13
66396;BME280;53207;51.378;-1.342;2023-04-01T13:03:11;99461.32;;;19.94;35.18
66396;BME280;53207;51.378;-1.342;2023-04-01T13:06:09;99469.10;;;20.04;35.03
66396;BME280;53207;51.378;-1.342;2023-04-01T13:08:43;99468.46;;;20.06;34.97
66396;BME280;53207;51.378;-1.342;2023-04-01T13:11:20;99471.48;;;19.97;35.10
66396;BME280;53207;51.378;-1.342;2023-04-01T13:14:04;99471.99;;;20.04;34.96
66396;BME280;53207;51.378;-1.342;2023-04-01T13:16:39;99478.85;;;20.09;35.23
66396;BME280;53207;51.378;-1.342;2023-04-01T13:19:17;99480.27;;;19.92;35.09
66396;BME280;53207;51.378;-1.342;2023-04-01T13:21:53;99483.13;;;19.96;35.03
66396;BME280;53207;51.378;-1.342;2023-04-01T13:24:31;99480.50;;;20.18;35.08
66396;BME280;53207;51.378;-1.342;2023-04-01T13:27:11;99489.36;;;20.13;35.14
66396;BME280;53207;51.378;-1.342;2023-04-01T13:29:48;99490.88;;;19.92;35.06
66396;BME280;53207;51.378;-1.342;2023-04-01T13:32:26;99493.08;;;19.87;35.10
66396;BME280;53207;51.378;-1.342;2023-04-01T13:35:10;99501.15;;;19.96;34.99
66396;BME280;53207;51.378;-1.342;2023-04-01T13:37:52;99502.74;;;20.26;34.94
66396;BME280;53207;51.378;-1.342;2023-04-01T13:40:33;99513.27;;;20.15;35.04
66396;BME280;53207;51.378;-1.342;2023-04-01T13:43:04;99514.84;;;20.22;34.95
66396;BME280;53207;51.378;-1.342;2023-04-01T13:48:35;99524.24;;;20.41;34.95
66396;BME280;53207;51.378;-1.342;2023-04-01T13:51:19;99529.86;;;20.19;34.95
66396;BME280;53207;51.378;-1.342;2023-04-01T13:54:02;99532.75;;;20.19;34.92
66396;BME280;53207;51.378;-1.342;2023-04-01T13:56:43;99537.00;;;19.89;34.94
66396;BME280;53207;51.378;-1.342;2023-04-01T13:59:42;99539.31;;;19.88;34.95